sensor_id;sensor_type;location;lat;lon;timestamp;temperature;humidity
85702;DHT22;76139;50.888;3.882;2024-03-02T00:00:06;6.80;89.10
85702;DHT22;76139;50.888;3.882;2024-03-02T00:02:44;6.80;89.00
85702;DHT22;76139;50.888;3.882;2024-03-02T00:05:20;6.70;89.00
85702;DHT22;76139;50.888;3.882;2024-03-02T00:07:53;6.70;89.40
85702;DHT22;76139;50.888;3.882;2024-03-02T00:10:23;6.70;89.60
85702;DHT22;76139;50.888;3.882;2024-03-02T00:12:54;6.80;89.10
85702;DHT22;76139;50.888;3.882;2024-03-02T00:17:55;6.90;88.50
85702;DHT22;76139;50.888;3.882;2024-03-02T00:20:24;6.90;87.80
85702;DHT22;76139;50.888;3.882;2024-03-02T00:23:02;7.10;87.50
85702;DHT22;76139;50.888;3.882;2024-03-02T00:25:38;7.20;86.90
85702;DHT22;76139;50.888;3.882;2024-03-02T00:28:05;7.20;86.20
85702;DHT22;76139;50.888;3.882;2024-03-02T00:30:48;7.10;85.80
85702;DHT22;76139;50.888;3.882;2024-03-02T00:33:16;7.10;86.60
85702;DHT22;76139;50.888;3.882;2024-03-02T00:35:45;7.00;86.30
85702;DHT22;76139;50.888;3.882;2024-03-02T00:38:11;6.90;86.80
85702;DHT22;76139;50.888;3.882;2024-03-02T00:40:37;6.90;87.10
85702;DHT22;76139;50.888;3.882;2024-03-02T00:43:03;7.00;87.60
85702;DHT22;76139;50.888;3.882;2024-03-02T00:45:29;7.00;86.90
85702;DHT22;76139;50.888;3.882;2024-03-02T00:47:55;7.10;86.80
85702;DHT22;76139;50.888;3.882;2024-03-02T00:50:21;7.00;86.80
85702;DHT22;76139;50.888;3.882;2024-03-02T00:52:47;7.00;86.90
85702;DHT22;76139;50.888;3.882;2024-03-02T00:55:14;6.90;87.30
85702;DHT22;76139;50.888;3.882;2024-03-02T00:57:40;6.90;87.10
85702;DHT22;76139;50.888;3.882;2024-03-02T01:00:06;6.90;86.90
85702;DHT22;76139;50.888;3.882;2024-03-02T01:02:35;7.00;86.70
85702;DHT22;76139;50.888;3.882;2024-03-02T01:05:01;7.00;86.50
85702;DHT22;76139;50.888;3.882;2024-03-02T01:07:27;7.10;86.00
85702;DHT22;76139;50.888;3.882;2024-03-02T01:09:52;7.00;86.00
85702;DHT22;76139;50.888;3.882;2024-03-02T01:12:18;7.00;86.50
85702;DHT22;76139;50.888;3.882;2024-03-02T01:14:44;7.00;86.10
85702;DHT22;76139;50.888;3.882;2024-03-02T01:17:10;7.10;86.10
85702;DHT22;76139;50.888;3.882;2024-03-02T01:19:36;7.00;86.00
85702;DHT22;76139;50.888;3.882;2024-03-02T01:22:01;7.00;86.00
85702;DHT22;76139;50.888;3.882;2024-03-02T01:24:27;7.00;86.10
85702;DHT22;76139;50.888;3.882;2024-03-02T01:26:53;7.00;86.30
85702;DHT22;76139;50.888;3.882;2024-03-02T01:29:19;7.00;86.00
85702;DHT22;76139;50.888;3.882;2024-03-02T01:31:45;7.00;86.00
85702;DHT22;76139;50.888;3.882;2024-03-02T01:34:11;7.00;85.80
85702;DHT22;76139;50.888;3.882;2024-03-02T01:36:38;7.10;85.40
85702;DHT22;76139;50.888;3.882;2024-03-02T01:39:03;6.90;86.40
85702;DHT22;76139;50.888;3.882;2024-03-02T01:41:31;6.90;85.40
85702;DHT22;76139;50.888;3.882;2024-03-02T01:43:57;6.80;85.60
85702;DHT22;76139;50.888;3.882;2024-03-02T01:46:22;6.80;85.90
85702;DHT22;76139;50.888;3.882;2024-03-02T01:48:48;6.60;86.20
85702;DHT22;76139;50.888;3.882;2024-03-02T01:51:14;6.50;86.40
85702;DHT22;76139;50.888;3.882;2024-03-02T01:53:40;6.60;86.70
85702;DHT22;76139;50.888;3.882;2024-03-02T01:56:06;6.50;86.70
85702;DHT22;76139;50.888;3.882;2024-03-02T01:58:32;6.50;86.70
85702;DHT22;76139;50.888;3.882;2024-03-02T02:00:57;6.50;86.40
85702;DHT22;76139;50.888;3.882;2024-03-02T02:03:23;6.50;87.20
85702;DHT22;76139;50.888;3.882;2024-03-02T02:05:49;6.70;85.80
85702;DHT22;76139;50.888;3.882;2024-03-02T02:08:15;6.80;85.00
85702;DHT22;76139;50.888;3.882;2024-03-02T02:10:40;6.70;84.90
85702;DHT22;76139;50.888;3.882;2024-03-02T02:13:06;6.60;85.10
85702;DHT22;76139;50.888;3.882;2024-03-02T02:15:34;6.70;85.30
85702;DHT22;76139;50.888;3.882;2024-03-02T02:18:01;6.60;85.10
85702;DHT22;76139;50.888;3.882;2024-03-02T02:20:27;6.70;85.30
85702;DHT22;76139;50.888;3.882;2024-03-02T02:23:01;6.70;85.10
85702;DHT22;76139;50.888;3.882;2024-03-02T02:25:27;6.70;85.30
85702;DHT22;76139;50.888;3.882;2024-03-02T02:27:54;6.80;84.70
85702;DHT22;76139;50.888;3.882;2024-03-02T02:30:23;6.90;84.80
85702;DHT22;76139;50.888;3.882;2024-03-02T02:32:49;6.90;83.70
85702;DHT22;76139;50.888;3.882;2024-03-02T02:35:15;6.90;83.40
85702;DHT22;76139;50.888;3.882;2024-03-02T02:37:41;6.90;83.40
85702;DHT22;76139;50.888;3.882;2024-03-02T02:40:07;6.90;83.20
85702;DHT22;76139;50.888;3.882;2024-03-02T02:42:33;7.00;82.90
85702;DHT22;76139;50.888;3.882;2024-03-02T02:44:58;7.00;82.80
85702;DHT22;76139;50.888;3.882;2024-03-02T02:47:25;7.10;82.40
85702;DHT22;76139;50.888;3.882;2024-03-02T02:49:51;7.20;82.40
85702;DHT22;76139;50.888;3.882;2024-03-02T02:52:17;7.20;81.90
85702;DHT22;76139;50.888;3.882;2024-03-02T02:54:43;7.10;82.30
85702;DHT22;76139;50.888;3.882;2024-03-02T02:57:08;7.00;82.70
85702;DHT22;76139;50.888;3.882;2024-03-02T02:59:35;7.00;82.00
85702;DHT22;76139;50.888;3.882;2024-03-02T03:02:01;7.10;82.00
85702;DHT22;76139;50.888;3.882;2024-03-02T03:04:27;7.10;81.90
85702;DHT22;76139;50.888;3.882;2024-03-02T03:06:52;7.00;81.50
85702;DHT22;76139;50.888;3.882;2024-03-02T03:09:18;7.00;81.30
85702;DHT22;76139;50.888;3.882;2024-03-02T03:11:44;7.00;80.90
85702;DHT22;76139;50.888;3.882;2024-03-02T03:14:10;7.00;81.40
85702;DHT22;76139;50.888;3.882;2024-03-02T03:16:36;7.00;81.70
85702;DHT22;76139;50.888;3.882;2024-03-02T03:19:01;7.00;81.70
85702;DHT22;76139;50.888;3.882;2024-03-02T03:21:27;7.00;81.60
85702;DHT22;76139;50.888;3.882;2024-03-02T03:23:52;7.00;81.80
85702;DHT22;76139;50.888;3.882;2024-03-02T03:26:18;6.90;81.80
85702;DHT22;76139;50.888;3.882;2024-03-02T03:28:44;6.90;82.10
85702;DHT22;76139;50.888;3.882;2024-03-02T03:31:10;6.90;82.10
85702;DHT22;76139;50.888;3.882;2024-03-02T03:33:36;6.80;82.30
85702;DHT22;76139;50.888;3.882;2024-03-02T03:36:01;6.80;82.50
85702;DHT22;76139;50.888;3.882;2024-03-02T03:38:29;6.80;82.80
85702;DHT22;76139;50.888;3.882;2024-03-02T03:40:55;6.90;82.80
85702;DHT22;76139;50.888;3.882;2024-03-02T03:43:21;6.80;82.80
85702;DHT22;76139;50.888;3.882;2024-03-02T03:45:46;6.90;82.50
85702;DHT22;76139;50.888;3.882;2024-03-02T03:48:12;6.90;82.50
85702;DHT22;76139;50.888;3.882;2024-03-02T03:50:38;6.90;82.70
85702;DHT22;76139;50.888;3.882;2024-03-02T03:53:03;7.00;81.80
85702;DHT22;76139;50.888;3.882;2024-03-02T03:55:29;7.00;81.70
85702;DHT22;76139;50.888;3.882;2024-03-02T03:57:55;7.00;82.20
85702;DHT22;76139;50.888;3.882;2024-03-02T04:00:20;7.00;82.10
85702;DHT22;76139;50.888;3.882;2024-03-02T04:02:46;7.00;82.40
85702;DHT22;76139;50.888;3.882;2024-03-02T04:05:12;6.90;82.40
85702;DHT22;76139;50.888;3.882;2024-03-02T04:07:37;7.00;82.20
85702;DHT22;76139;50.888;3.882;2024-03-02T04:10:09;7.00;82.00
85702;DHT22;76139;50.888;3.882;2024-03-02T04:12:38;7.00;82.00
85702;DHT22;76139;50.888;3.882;2024-03-02T04:15:05;7.10;81.30
85702;DHT22;76139;50.888;3.882;2024-03-02T04:17:32;7.10;81.30
85702;DHT22;76139;50.888;3.882;2024-03-02T04:19:59;6.90;81.40
85702;DHT22;76139;50.888;3.882;2024-03-02T04:22:25;6.90;81.70
85702;DHT22;76139;50.888;3.882;2024-03-02T04:24:51;6.90;81.40
85702;DHT22;76139;50.888;3.882;2024-03-02T04:27:17;6.90;81.50
85702;DHT22;76139;50.888;3.882;2024-03-02T04:29:42;6.80;81.50
85702;DHT22;76139;50.888;3.882;2024-03-02T04:32:08;6.80;81.60
85702;DHT22;76139;50.888;3.882;2024-03-02T04:34:34;6.70;81.70
85702;DHT22;76139;50.888;3.882;2024-03-02T04:36:59;6.60;81.80
85702;DHT22;76139;50.888;3.882;2024-03-02T04:39:25;6.60;82.30
85702;DHT22;76139;50.888;3.882;2024-03-02T04:41:51;6.50;82.40
85702;DHT22;76139;50.888;3.882;2024-03-02T04:44:17;6.40;82.40
85702;DHT22;76139;50.888;3.882;2024-03-02T04:46:43;6.40;82.70
85702;DHT22;76139;50.888;3.882;2024-03-02T04:49:08;6.40;82.80
85702;DHT22;76139;50.888;3.882;2024-03-02T04:51:34;6.40;82.20
85702;DHT22;76139;50.888;3.882;2024-03-02T04:53:59;6.30;82.80
85702;DHT22;76139;50.888;3.882;2024-03-02T04:56:25;6.20;83.60
85702;DHT22;76139;50.888;3.882;2024-03-02T04:58:57;6.20;83.60
85702;DHT22;76139;50.888;3.882;2024-03-02T05:01:22;6.20;83.60
85702;DHT22;76139;50.888;3.882;2024-03-02T05:03:48;6.10;84.10
85702;DHT22;76139;50.888;3.882;2024-03-02T05:06:14;6.30;83.60
85702;DHT22;76139;50.888;3.882;2024-03-02T05:08:39;6.20;83.90
85702;DHT22;76139;50.888;3.882;2024-03-02T05:11:05;6.10;84.30
85702;DHT22;76139;50.888;3.882;2024-03-02T05:13:49;6.10;84.20
85702;DHT22;76139;50.888;3.882;2024-03-02T05:16:15;6.10;84.10
85702;DHT22;76139;50.888;3.882;2024-03-02T05:18:41;6.10;84.40
85702;DHT22;76139;50.888;3.882;2024-03-02T05:21:06;6.00;84.90
85702;DHT22;76139;50.888;3.882;2024-03-02T05:23:32;5.90;85.40
85702;DHT22;76139;50.888;3.882;2024-03-02T05:25:58;5.90;85.40
85702;DHT22;76139;50.888;3.882;2024-03-02T05:28:24;5.90;85.40
85702;DHT22;76139;50.888;3.882;2024-03-02T05:30:50;5.90;85.40
85702;DHT22;76139;50.888;3.882;2024-03-02T05:33:16;5.80;85.60
85702;DHT22;76139;50.888;3.882;2024-03-02T05:35:41;5.90;85.70
85702;DHT22;76139;50.888;3.882;2024-03-02T05:38:09;5.90;85.40
85702;DHT22;76139;50.888;3.882;2024-03-02T05:40:34;5.90;85.60
85702;DHT22;76139;50.888;3.882;2024-03-02T05:43:00;5.70;86.20
85702;DHT22;76139;50.888;3.882;2024-03-02T05:45:25;5.80;86.20
85702;DHT22;76139;50.888;3.882;2024-03-02T05:47:51;5.80;86.40
85702;DHT22;76139;50.888;3.882;2024-03-02T05:50:17;5.80;86.40
85702;DHT22;76139;50.888;3.882;2024-03-02T05:52:42;5.80;86.50
85702;DHT22;76139;50.888;3.882;2024-03-02T05:55:08;5.80;86.60
85702;DHT22;76139;50.888;3.882;2024-03-02T05:57:34;5.80;86.40
85702;DHT22;76139;50.888;3.882;2024-03-02T06:00:15;5.80;86.40
85702;DHT22;76139;50.888;3.882;2024-03-02T06:02:42;5.70;86.60
85702;DHT22;76139;50.888;3.882;2024-03-02T06:05:08;5.70;86.80
85702;DHT22;76139;50.888;3.882;2024-03-02T06:07:34;5.70;86.80
85702;DHT22;76139;50.888;3.882;2024-03-02T06:10:00;5.70;86.50
85702;DHT22;76139;50.888;3.882;2024-03-02T06:12:26;5.60;86.80
85702;DHT22;76139;50.888;3.882;2024-03-02T06:14:51;5.60;86.90
85702;DHT22;76139;50.888;3.882;2024-03-02T06:17:17;5.70;86.70
85702;DHT22;76139;50.888;3.882;2024-03-02T06:19:44;5.70;86.80
85702;DHT22;76139;50.888;3.882;2024-03-02T06:22:09;5.60;86.80
85702;DHT22;76139;50.888;3.882;2024-03-02T06:24:36;5.60;86.70
85702;DHT22;76139;50.888;3.882;2024-03-02T06:27:03;5.60;86.80
85702;DHT22;76139;50.888;3.882;2024-03-02T06:29:29;5.60;86.80
85702;DHT22;76139;50.888;3.882;2024-03-02T06:31:55;5.60;86.90
85702;DHT22;76139;50.888;3.882;2024-03-02T06:34:21;5.60;86.80
85702;DHT22;76139;50.888;3.882;2024-03-02T06:36:46;5.70;86.40
85702;DHT22;76139;50.888;3.882;2024-03-02T06:39:13;5.60;86.50
85702;DHT22;76139;50.888;3.882;2024-03-02T06:41:39;5.70;86.60
85702;DHT22;76139;50.888;3.882;2024-03-02T06:44:04;5.70;86.20
85702;DHT22;76139;50.888;3.882;2024-03-02T06:46:31;5.70;86.00
85702;DHT22;76139;50.888;3.882;2024-03-02T06:48:57;5.70;86.30
85702;DHT22;76139;50.888;3.882;2024-03-02T06:51:23;5.80;86.10
85702;DHT22;76139;50.888;3.882;2024-03-02T06:53:48;5.80;86.00
85702;DHT22;76139;50.888;3.882;2024-03-02T06:56:14;5.70;86.10
85702;DHT22;76139;50.888;3.882;2024-03-02T06:58:40;5.80;86.00
85702;DHT22;76139;50.888;3.882;2024-03-02T07:01:06;5.80;85.90
85702;DHT22;76139;50.888;3.882;2024-03-02T07:03:31;5.80;85.70
85702;DHT22;76139;50.888;3.882;2024-03-02T07:05:58;5.90;85.40
85702;DHT22;76139;50.888;3.882;2024-03-02T07:08:24;5.90;85.40
85702;DHT22;76139;50.888;3.882;2024-03-02T07:10:49;5.90;85.70
85702;DHT22;76139;50.888;3.882;2024-03-02T07:13:15;6.00;85.70
85702;DHT22;76139;50.888;3.882;2024-03-02T07:15:40;6.00;85.50
85702;DHT22;76139;50.888;3.882;2024-03-02T07:18:25;6.00;85.50
85702;DHT22;76139;50.888;3.882;2024-03-02T07:20:50;6.10;85.20
85702;DHT22;76139;50.888;3.882;2024-03-02T07:23:16;6.20;85.30
85702;DHT22;76139;50.888;3.882;2024-03-02T07:25:42;6.30;85.00
85702;DHT22;76139;50.888;3.882;2024-03-02T07:28:07;6.40;84.80
85702;DHT22;76139;50.888;3.882;2024-03-02T07:30:33;6.50;84.40
85702;DHT22;76139;50.888;3.882;2024-03-02T07:32:59;6.50;84.10
85702;DHT22;76139;50.888;3.882;2024-03-02T07:35:25;6.50;84.10
85702;DHT22;76139;50.888;3.882;2024-03-02T07:37:57;6.50;83.90
85702;DHT22;76139;50.888;3.882;2024-03-02T07:40:23;6.70;84.00
85702;DHT22;76139;50.888;3.882;2024-03-02T07:42:49;6.80;82.90
85702;DHT22;76139;50.888;3.882;2024-03-02T07:45:14;6.90;83.20
85702;DHT22;76139;50.888;3.882;2024-03-02T07:47:40;7.00;82.80
85702;DHT22;76139;50.888;3.882;2024-03-02T07:50:06;6.90;81.80
85702;DHT22;76139;50.888;3.882;2024-03-02T07:52:33;7.00;82.30
85702;DHT22;76139;50.888;3.882;2024-03-02T07:54:59;7.10;81.80
85702;DHT22;76139;50.888;3.882;2024-03-02T07:57:25;7.30;81.20
85702;DHT22;76139;50.888;3.882;2024-03-02T07:59:51;7.70;80.10
85702;DHT22;76139;50.888;3.882;2024-03-02T08:02:17;8.10;78.40
85702;DHT22;76139;50.888;3.882;2024-03-02T08:04:43;8.60;75.90
85702;DHT22;76139;50.888;3.882;2024-03-02T08:07:08;9.40;73.80
85702;DHT22;76139;50.888;3.882;2024-03-02T08:09:35;9.80;71.50
85702;DHT22;76139;50.888;3.882;2024-03-02T08:12:00;10.10;70.10
85702;DHT22;76139;50.888;3.882;2024-03-02T08:14:26;10.30;69.00
85702;DHT22;76139;50.888;3.882;2024-03-02T08:16:52;10.00;70.10
85702;DHT22;76139;50.888;3.882;2024-03-02T08:19:17;10.30;69.80
85702;DHT22;76139;50.888;3.882;2024-03-02T08:21:43;10.30;69.20
85702;DHT22;76139;50.888;3.882;2024-03-02T08:24:10;10.60;67.20
85702;DHT22;76139;50.888;3.882;2024-03-02T08:26:35;10.60;67.60
85702;DHT22;76139;50.888;3.882;2024-03-02T08:29:01;10.10;69.40
85702;DHT22;76139;50.888;3.882;2024-03-02T08:31:29;10.70;68.40
85702;DHT22;76139;50.888;3.882;2024-03-02T08:33:55;11.20;66.00
85702;DHT22;76139;50.888;3.882;2024-03-02T08:36:23;11.10;64.80
85702;DHT22;76139;50.888;3.882;2024-03-02T08:38:51;10.50;68.00
85702;DHT22;76139;50.888;3.882;2024-03-02T08:41:17;10.20;68.20
85702;DHT22;76139;50.888;3.882;2024-03-02T08:43:44;9.40;70.40
85702;DHT22;76139;50.888;3.882;2024-03-02T08:46:10;8.80;73.30
85702;DHT22;76139;50.888;3.882;2024-03-02T08:48:35;8.60;74.50
85702;DHT22;76139;50.888;3.882;2024-03-02T08:51:01;8.80;74.60
85702;DHT22;76139;50.888;3.882;2024-03-02T08:53:28;9.90;71.30
85702;DHT22;76139;50.888;3.882;2024-03-02T08:55:53;11.20;67.40
85702;DHT22;76139;50.888;3.882;2024-03-02T08:58:20;12.00;64.90
85702;DHT22;76139;50.888;3.882;2024-03-02T09:00:47;12.00;63.60
85702;DHT22;76139;50.888;3.882;2024-03-02T09:03:13;12.60;62.00
85702;DHT22;76139;50.888;3.882;2024-03-02T09:05:38;13.20;61.60
85702;DHT22;76139;50.888;3.882;2024-03-02T09:08:04;13.40;59.50
85702;DHT22;76139;50.888;3.882;2024-03-02T09:10:30;13.10;58.50
85702;DHT22;76139;50.888;3.882;2024-03-02T09:12:56;11.80;62.60
85702;DHT22;76139;50.888;3.882;2024-03-02T09:15:22;11.70;64.30
85702;DHT22;76139;50.888;3.882;2024-03-02T09:17:47;11.90;63.30
85702;DHT22;76139;50.888;3.882;2024-03-02T09:20:13;12.40;62.60
85702;DHT22;76139;50.888;3.882;2024-03-02T09:22:39;12.40;62.60
85702;DHT22;76139;50.888;3.882;2024-03-02T09:25:05;13.40;60.00
85702;DHT22;76139;50.888;3.882;2024-03-02T09:27:36;13.20;60.30
85702;DHT22;76139;50.888;3.882;2024-03-02T09:30:04;13.20;59.30
85702;DHT22;76139;50.888;3.882;2024-03-02T09:32:31;12.40;60.50
85702;DHT22;76139;50.888;3.882;2024-03-02T09:34:56;12.50;61.30
85702;DHT22;76139;50.888;3.882;2024-03-02T09:37:23;12.40;61.60
85702;DHT22;76139;50.888;3.882;2024-03-02T09:39:49;12.30;62.30
85702;DHT22;76139;50.888;3.882;2024-03-02T09:42:15;12.60;61.40
85702;DHT22;76139;50.888;3.882;2024-03-02T09:44:42;12.30;62.10
85702;DHT22;76139;50.888;3.882;2024-03-02T09:47:08;12.70;61.20
85702;DHT22;76139;50.888;3.882;2024-03-02T09:49:34;12.00;62.50
85702;DHT22;76139;50.888;3.882;2024-03-02T09:52:00;12.70;60.50
85702;DHT22;76139;50.888;3.882;2024-03-02T09:54:26;12.00;62.90
85702;DHT22;76139;50.888;3.882;2024-03-02T09:56:52;12.20;63.40
85702;DHT22;76139;50.888;3.882;2024-03-02T09:59:18;11.20;64.50
85702;DHT22;76139;50.888;3.882;2024-03-02T10:01:58;11.20;65.90
85702;DHT22;76139;50.888;3.882;2024-03-02T10:04:29;11.50;65.40
85702;DHT22;76139;50.888;3.882;2024-03-02T10:09:44;11.10;65.70
85702;DHT22;76139;50.888;3.882;2024-03-02T10:12:11;11.50;65.10
85702;DHT22;76139;50.888;3.882;2024-03-02T10:14:38;11.50;65.60
85702;DHT22;76139;50.888;3.882;2024-03-02T10:17:09;11.70;65.20
85702;DHT22;76139;50.888;3.882;2024-03-02T10:19:36;11.80;65.20
85702;DHT22;76139;50.888;3.882;2024-03-02T10:22:03;12.30;62.90
85702;DHT22;76139;50.888;3.882;2024-03-02T10:24:39;12.30;63.10
85702;DHT22;76139;50.888;3.882;2024-03-02T10:27:26;11.60;64.10
85702;DHT22;76139;50.888;3.882;2024-03-02T10:29:52;11.90;64.10
85702;DHT22;76139;50.888;3.882;2024-03-02T10:32:18;11.70;64.30
85702;DHT22;76139;50.888;3.882;2024-03-02T10:34:46;11.80;64.60
85702;DHT22;76139;50.888;3.882;2024-03-02T10:37:13;11.20;65.60
85702;DHT22;76139;50.888;3.882;2024-03-02T10:39:39;11.00;67.30
85702;DHT22;76139;50.888;3.882;2024-03-02T10:42:08;11.40;67.00
85702;DHT22;76139;50.888;3.882;2024-03-02T10:44:34;11.80;65.40
85702;DHT22;76139;50.888;3.882;2024-03-02T10:47:05;11.90;64.20
85702;DHT22;76139;50.888;3.882;2024-03-02T10:49:31;11.40;64.90
85702;DHT22;76139;50.888;3.882;2024-03-02T10:51:58;11.30;65.30
85702;DHT22;76139;50.888;3.882;2024-03-02T10:54:24;11.10;65.50
85702;DHT22;76139;50.888;3.882;2024-03-02T10:56:56;10.70;66.90
85702;DHT22;76139;50.888;3.882;2024-03-02T11:01:56;11.10;66.70
85702;DHT22;76139;50.888;3.882;2024-03-02T11:04:24;11.20;65.90
85702;DHT22;76139;50.888;3.882;2024-03-02T11:06:51;11.50;65.90
85702;DHT22;76139;50.888;3.882;2024-03-02T11:09:22;11.80;65.00
85702;DHT22;76139;50.888;3.882;2024-03-02T11:11:56;11.90;63.30
85702;DHT22;76139;50.888;3.882;2024-03-02T11:14:24;12.00;63.40
85702;DHT22;76139;50.888;3.882;2024-03-02T11:16:51;11.70;63.80
85702;DHT22;76139;50.888;3.882;2024-03-02T11:19:18;11.70;62.90
85702;DHT22;76139;50.888;3.882;2024-03-02T11:21:44;11.30;64.70
85702;DHT22;76139;50.888;3.882;2024-03-02T11:26:50;11.40;65.40
85702;DHT22;76139;50.888;3.882;2024-03-02T11:32:17;11.30;64.50
85702;DHT22;76139;50.888;3.882;2024-03-02T11:34:45;11.20;64.20
85702;DHT22;76139;50.888;3.882;2024-03-02T11:37:19;11.20;65.60
85702;DHT22;76139;50.888;3.882;2024-03-02T11:39:51;11.20;65.30
85702;DHT22;76139;50.888;3.882;2024-03-02T11:42:17;11.00;64.80
85702;DHT22;76139;50.888;3.882;2024-03-02T11:44:45;10.90;65.80
85702;DHT22;76139;50.888;3.882;2024-03-02T11:47:13;10.90;65.90
85702;DHT22;76139;50.888;3.882;2024-03-02T11:49:42;11.00;66.20
85702;DHT22;76139;50.888;3.882;2024-03-02T11:52:09;11.00;66.70
85702;DHT22;76139;50.888;3.882;2024-03-02T11:54:37;11.10;65.80
85702;DHT22;76139;50.888;3.882;2024-03-02T11:57:06;11.10;66.30
85702;DHT22;76139;50.888;3.882;2024-03-02T11:59:32;11.00;67.60
85702;DHT22;76139;50.888;3.882;2024-03-02T12:01:58;11.00;67.90
85702;DHT22;76139;50.888;3.882;2024-03-02T12:04:25;11.00;68.90
85702;DHT22;76139;50.888;3.882;2024-03-02T12:06:59;11.00;68.70
85702;DHT22;76139;50.888;3.882;2024-03-02T12:09:28;10.80;69.20
85702;DHT22;76139;50.888;3.882;2024-03-02T12:12:07;10.80;70.00
85702;DHT22;76139;50.888;3.882;2024-03-02T12:14:36;10.80;70.80
85702;DHT22;76139;50.888;3.882;2024-03-02T12:17:02;10.80;71.30
85702;DHT22;76139;50.888;3.882;2024-03-02T12:19:29;10.90;71.10
85702;DHT22;76139;50.888;3.882;2024-03-02T12:22:01;10.70;72.60
85702;DHT22;76139;50.888;3.882;2024-03-02T12:24:29;10.60;73.90
85702;DHT22;76139;50.888;3.882;2024-03-02T12:26:55;10.50;73.00
85702;DHT22;76139;50.888;3.882;2024-03-02T12:29:21;10.50;73.70
85702;DHT22;76139;50.888;3.882;2024-03-02T12:31:53;10.60;74.40
85702;DHT22;76139;50.888;3.882;2024-03-02T12:34:19;10.50;73.60
85702;DHT22;76139;50.888;3.882;2024-03-02T12:36:49;10.40;73.90
85702;DHT22;76139;50.888;3.882;2024-03-02T12:39:21;10.40;74.80
85702;DHT22;76139;50.888;3.882;2024-03-02T12:41:49;10.40;75.20
85702;DHT22;76139;50.888;3.882;2024-03-02T12:44:17;10.40;75.20
85702;DHT22;76139;50.888;3.882;2024-03-02T12:46:43;10.50;76.40
85702;DHT22;76139;50.888;3.882;2024-03-02T12:49:13;10.40;76.30
85702;DHT22;76139;50.888;3.882;2024-03-02T12:51:41;10.40;77.10
85702;DHT22;76139;50.888;3.882;2024-03-02T12:54:10;10.50;75.90
85702;DHT22;76139;50.888;3.882;2024-03-02T12:56:41;10.60;76.00
85702;DHT22;76139;50.888;3.882;2024-03-02T12:59:17;10.60;75.90
85702;DHT22;76139;50.888;3.882;2024-03-02T13:01:53;10.70;75.40
85702;DHT22;76139;50.888;3.882;2024-03-02T13:04:26;10.40;76.40
85702;DHT22;76139;50.888;3.882;2024-03-02T13:06:52;10.40;76.80
85702;DHT22;76139;50.888;3.882;2024-03-02T13:09:19;10.20;77.80
85702;DHT22;76139;50.888;3.882;2024-03-02T13:11:45;10.20;78.00
85702;DHT22;76139;50.888;3.882;2024-03-02T13:14:11;10.30;77.90
85702;DHT22;76139;50.888;3.882;2024-03-02T13:16:40;10.20;77.40
85702;DHT22;76139;50.888;3.882;2024-03-02T13:19:14;10.30;77.80
85702;DHT22;76139;50.888;3.882;2024-03-02T13:21:40;10.60;78.10
85702;DHT22;76139;50.888;3.882;2024-03-02T13:24:06;10.80;77.30
85702;DHT22;76139;50.888;3.882;2024-03-02T13:26:32;11.10;77.90
85702;DHT22;76139;50.888;3.882;2024-03-02T13:28:57;11.30;77.10
85702;DHT22;76139;50.888;3.882;2024-03-02T13:31:23;11.40;76.30
85702;DHT22;76139;50.888;3.882;2024-03-02T13:33:49;11.40;76.30
85702;DHT22;76139;50.888;3.882;2024-03-02T13:36:14;11.50;76.50
85702;DHT22;76139;50.888;3.882;2024-03-02T13:38:40;11.50;76.50
85702;DHT22;76139;50.888;3.882;2024-03-02T13:41:05;11.50;76.20
85702;DHT22;76139;50.888;3.882;2024-03-02T13:43:31;11.20;76.90
85702;DHT22;76139;50.888;3.882;2024-03-02T13:45:58;11.10;76.80
85702;DHT22;76139;50.888;3.882;2024-03-02T13:48:24;10.80;77.50
85702;DHT22;76139;50.888;3.882;2024-03-02T13:50:53;10.60;79.00
85702;DHT22;76139;50.888;3.882;2024-03-02T13:53:19;10.70;79.20
85702;DHT22;76139;50.888;3.882;2024-03-02T13:55:45;10.70;79.80
85702;DHT22;76139;50.888;3.882;2024-03-02T13:58:11;10.90;78.70
85702;DHT22;76139;50.888;3.882;2024-03-02T14:00:38;10.90;78.90
85702;DHT22;76139;50.888;3.882;2024-03-02T14:03:06;10.80;78.60
85702;DHT22;76139;50.888;3.882;2024-03-02T14:05:33;10.60;79.20
85702;DHT22;76139;50.888;3.882;2024-03-02T14:07:59;10.70;78.20
85702;DHT22;76139;50.888;3.882;2024-03-02T14:10:26;10.70;77.60
85702;DHT22;76139;50.888;3.882;2024-03-02T14:12:52;10.70;78.70
85702;DHT22;76139;50.888;3.882;2024-03-02T14:15:18;10.70;77.10
85702;DHT22;76139;50.888;3.882;2024-03-02T14:17:44;10.70;76.20
85702;DHT22;76139;50.888;3.882;2024-03-02T14:20:10;10.70;76.50
85702;DHT22;76139;50.888;3.882;2024-03-02T14:22:37;10.70;76.50
85702;DHT22;76139;50.888;3.882;2024-03-02T14:25:03;10.60;76.40
85702;DHT22;76139;50.888;3.882;2024-03-02T14:27:29;10.60;76.60
85702;DHT22;76139;50.888;3.882;2024-03-02T14:29:55;10.60;77.40
85702;DHT22;76139;50.888;3.882;2024-03-02T14:32:21;10.70;77.70
85702;DHT22;76139;50.888;3.882;2024-03-02T14:34:47;10.70;77.20
85702;DHT22;76139;50.888;3.882;2024-03-02T14:37:14;10.70;77.40
85702;DHT22;76139;50.888;3.882;2024-03-02T14:39:40;10.70;77.60
85702;DHT22;76139;50.888;3.882;2024-03-02T14:42:06;10.70;78.30
85702;DHT22;76139;50.888;3.882;2024-03-02T14:44:33;10.70;77.00
85702;DHT22;76139;50.888;3.882;2024-03-02T14:47:03;10.70;76.40
85702;DHT22;76139;50.888;3.882;2024-03-02T14:49:33;10.80;76.00
85702;DHT22;76139;50.888;3.882;2024-03-02T14:52:02;10.90;75.90
85702;DHT22;76139;50.888;3.882;2024-03-02T14:54:27;11.00;75.60
85702;DHT22;76139;50.888;3.882;2024-03-02T14:56:53;11.00;74.50
85702;DHT22;76139;50.888;3.882;2024-03-02T14:59:19;11.00;74.30
85702;DHT22;76139;50.888;3.882;2024-03-02T15:01:44;11.10;73.80
85702;DHT22;76139;50.888;3.882;2024-03-02T15:04:10;11.20;72.70
85702;DHT22;76139;50.888;3.882;2024-03-02T15:06:36;11.20;73.20
85702;DHT22;76139;50.888;3.882;2024-03-02T15:09:02;11.10;73.20
85702;DHT22;76139;50.888;3.882;2024-03-02T15:11:27;11.10;72.40
85702;DHT22;76139;50.888;3.882;2024-03-02T15:13:53;11.10;72.20
85702;DHT22;76139;50.888;3.882;2024-03-02T15:16:19;11.20;72.00
85702;DHT22;76139;50.888;3.882;2024-03-02T15:18:45;11.30;72.00
85702;DHT22;76139;50.888;3.882;2024-03-02T15:21:11;11.40;71.70
85702;DHT22;76139;50.888;3.882;2024-03-02T15:23:37;11.30;71.60
85702;DHT22;76139;50.888;3.882;2024-03-02T15:26:02;11.40;71.50
85702;DHT22;76139;50.888;3.882;2024-03-02T15:28:28;11.40;70.80
85702;DHT22;76139;50.888;3.882;2024-03-02T15:30:54;11.40;70.10
85702;DHT22;76139;50.888;3.882;2024-03-02T15:33:20;11.40;70.70
85702;DHT22;76139;50.888;3.882;2024-03-02T15:35:46;11.40;71.00
85702;DHT22;76139;50.888;3.882;2024-03-02T15:38:12;11.40;70.80
85702;DHT22;76139;50.888;3.882;2024-03-02T15:40:40;11.50;70.40
85702;DHT22;76139;50.888;3.882;2024-03-02T15:43:06;11.40;71.00
85702;DHT22;76139;50.888;3.882;2024-03-02T15:45:31;11.40;71.40
85702;DHT22;76139;50.888;3.882;2024-03-02T15:48:00;11.40;71.00
85702;DHT22;76139;50.888;3.882;2024-03-02T15:50:26;11.40;71.60